sensor_id;sensor_type;location;lat;lon;timestamp;P1;durP1;ratioP1;P2;durP2;ratioP2
64959;SDS011;51487;52.266;10.542;2023-02-18T00:01:24;7.20;;;1.85;;
64959;SDS011;51487;52.266;10.542;2023-02-18T00:03:50;8.27;;;2.50;;
64959;SDS011;51487;52.266;10.542;2023-02-18T00:06:17;5.53;;;1.77;;
64959;SDS011;51487;52.266;10.542;2023-02-18T00:08:52;9.05;;;1.80;;
64959;SDS011;51487;52.266;10.542;2023-02-18T00:11:19;6.35;;;1.75;;
64959;SDS011;51487;52.266;10.542;2023-02-18T00:13:49;7.03;;;1.75;;
64959;SDS011;51487;52.266;10.542;2023-02-18T00:16:17;6.07;;;2.15;;
64959;SDS011;51487;52.266;10.542;2023-02-18T00:18:42;7.30;;;2.08;;
64959;SDS011;51487;52.266;10.542;2023-02-18T00:21:08;6.65;;;2.10;;
64959;SDS011;51487;52.266;10.542;2023-02-18T00:23:34;5.25;;;1.75;;
64959;SDS011;51487;52.266;10.542;2023-02-18T00:26:00;4.38;;;1.90;;
64959;SDS011;51487;52.266;10.542;2023-02-18T00:28:28;7.22;;;2.33;;
64959;SDS011;51487;52.266;10.542;2023-02-18T00:30:54;9.90;;;2.08;;
64959;SDS011;51487;52.266;10.542;2023-02-18T00:33:19;6.88;;;1.88;;
64959;SDS011;51487;52.266;10.542;2023-02-18T00:35:45;5.45;;;1.85;;
64959;SDS011;51487;52.266;10.542;2023-02-18T00:38:10;6.53;;;2.28;;
64959;SDS011;51487;52.266;10.542;2023-02-18T00:40:36;6.78;;;2.20;;
64959;SDS011;51487;52.266;10.542;2023-02-18T00:43:03;6.90;;;1.80;;
64959;SDS011;51487;52.266;10.542;2023-02-18T00:45:29;10.93;;;2.10;;
64959;SDS011;51487;52.266;10.542;2023-02-18T00:47:54;6.65;;;2.08;;
64959;SDS011;51487;52.266;10.542;2023-02-18T00:50:20;7.45;;;2.10;;
64959;SDS011;51487;52.266;10.542;2023-02-18T00:52:46;8.02;;;2.00;;
64959;SDS011;51487;52.266;10.542;2023-02-18T00:55:12;5.15;;;1.60;;
64959;SDS011;51487;52.266;10.542;2023-02-18T00:57:37;5.35;;;1.85;;
64959;SDS011;51487;52.266;10.542;2023-02-18T01:00:04;5.53;;;1.85;;
64959;SDS011;51487;52.266;10.542;2023-02-18T01:02:31;9.13;;;2.28;;
64959;SDS011;51487;52.266;10.542;2023-02-18T01:04:57;5.25;;;1.50;;
64959;SDS011;51487;52.266;10.542;2023-02-18T01:07:23;7.30;;;2.22;;
64959;SDS011;51487;52.266;10.542;2023-02-18T01:09:49;4.78;;;1.70;;
64959;SDS011;51487;52.266;10.542;2023-02-18T01:12:14;6.50;;;1.95;;
64959;SDS011;51487;52.266;10.542;2023-02-18T01:14:40;8.52;;;2.13;;
64959;SDS011;51487;52.266;10.542;2023-02-18T01:17:06;5.22;;;1.90;;
64959;SDS011;51487;52.266;10.542;2023-02-18T01:19:32;7.43;;;1.95;;
64959;SDS011;51487;52.266;10.542;2023-02-18T01:21:57;7.30;;;2.30;;
64959;SDS011;51487;52.266;10.542;2023-02-18T01:24:23;9.43;;;2.20;;
64959;SDS011;51487;52.266;10.542;2023-02-18T01:26:48;6.68;;;2.00;;
64959;SDS011;51487;52.266;10.542;2023-02-18T01:29:14;8.68;;;2.70;;
64959;SDS011;51487;52.266;10.542;2023-02-18T01:31:39;6.35;;;1.70;;
64959;SDS011;51487;52.266;10.542;2023-02-18T01:34:05;7.78;;;1.80;;
64959;SDS011;51487;52.266;10.542;2023-02-18T01:36:30;4.82;;;1.92;;
64959;SDS011;51487;52.266;10.542;2023-02-18T01:38:56;7.25;;;2.28;;
64959;SDS011;51487;52.266;10.542;2023-02-18T01:41:22;11.73;;;2.10;;
64959;SDS011;51487;52.266;10.542;2023-02-18T01:43:47;4.13;;;2.05;;
64959;SDS011;51487;52.266;10.542;2023-02-18T01:46:14;6.85;;;1.73;;
64959;SDS011;51487;52.266;10.542;2023-02-18T01:48:56;7.45;;;1.73;;
64959;SDS011;51487;52.266;10.542;2023-02-18T01:51:33;5.53;;;1.50;;
64959;SDS011;51487;52.266;10.542;2023-02-18T01:54:20;8.98;;;1.75;;
64959;SDS011;51487;52.266;10.542;2023-02-18T02:02:10;6.68;;;1.83;;
64959;SDS011;51487;52.266;10.542;2023-02-18T02:04:40;7.55;;;1.83;;
64959;SDS011;51487;52.266;10.542;2023-02-18T02:07:06;5.95;;;1.65;;
64959;SDS011;51487;52.266;10.542;2023-02-18T02:09:32;5.55;;;1.75;;
64959;SDS011;51487;52.266;10.542;2023-02-18T02:32:13;8.18;;;2.08;;
64959;SDS011;51487;52.266;10.542;2023-02-18T02:35:09;5.93;;;1.85;;
64959;SDS011;51487;52.266;10.542;2023-02-18T02:46:30;5.25;;;1.90;;
64959;SDS011;51487;52.266;10.542;2023-02-18T02:52:15;4.72;;;1.65;;
64959;SDS011;51487;52.266;10.542;2023-02-18T02:54:48;7.40;;;2.05;;
64959;SDS011;51487;52.266;10.542;2023-02-18T02:59:42;7.15;;;1.90;;
64959;SDS011;51487;52.266;10.542;2023-02-18T03:02:24;7.75;;;1.73;;
64959;SDS011;51487;52.266;10.542;2023-02-18T03:11:20;5.95;;;1.58;;
64959;SDS011;51487;52.266;10.542;2023-02-18T03:16:44;6.03;;;1.77;;
64959;SDS011;51487;52.266;10.542;2023-02-18T03:19:23;7.53;;;1.70;;
64959;SDS011;51487;52.266;10.542;2023-02-18T03:22:06;9.27;;;2.03;;
64959;SDS011;51487;52.266;10.542;2023-02-18T03:24:48;6.95;;;1.88;;
64959;SDS011;51487;52.266;10.542;2023-02-18T03:27:27;8.55;;;2.05;;
64959;SDS011;51487;52.266;10.542;2023-02-18T03:30:04;5.10;;;1.60;;
64959;SDS011;51487;52.266;10.542;2023-02-18T03:32:43;8.75;;;1.95;;
64959;SDS011;51487;52.266;10.542;2023-02-18T03:35:14;7.22;;;2.00;;
64959;SDS011;51487;52.266;10.542;2023-02-18T03:37:49;8.50;;;2.13;;
64959;SDS011;51487;52.266;10.542;2023-02-18T03:40:27;8.50;;;2.17;;
64959;SDS011;51487;52.266;10.542;2023-02-18T03:42:56;4.20;;;1.85;;
64959;SDS011;51487;52.266;10.542;2023-02-18T03:45:23;12.93;;;2.72;;
64959;SDS011;51487;52.266;10.542;2023-02-18T03:47:50;6.57;;;1.55;;
64959;SDS011;51487;52.266;10.542;2023-02-18T03:50:17;7.47;;;2.10;;
64959;SDS011;51487;52.266;10.542;2023-02-18T03:52:42;6.43;;;1.80;;
64959;SDS011;51487;52.266;10.542;2023-02-18T03:55:08;6.55;;;2.10;;
64959;SDS011;51487;52.266;10.542;2023-02-18T03:57:34;8.38;;;2.60;;
64959;SDS011;51487;52.266;10.542;2023-02-18T04:00:00;8.73;;;2.17;;
64959;SDS011;51487;52.266;10.542;2023-02-18T04:02:25;6.55;;;2.10;;
64959;SDS011;51487;52.266;10.542;2023-02-18T04:04:51;8.35;;;2.53;;
64959;SDS011;51487;52.266;10.542;2023-02-18T04:07:17;6.47;;;2.10;;
64959;SDS011;51487;52.266;10.542;2023-02-18T04:09:42;6.90;;;2.10;;
64959;SDS011;51487;52.266;10.542;2023-02-18T04:12:08;8.13;;;2.40;;
64959;SDS011;51487;52.266;10.542;2023-02-18T04:14:33;9.40;;;2.17;;
64959;SDS011;51487;52.266;10.542;2023-02-18T04:16:59;9.05;;;2.22;;
64959;SDS011;51487;52.266;10.542;2023-02-18T04:19:25;6.15;;;2.25;;
64959;SDS011;51487;52.266;10.542;2023-02-18T04:21:50;5.45;;;1.98;;
64959;SDS011;51487;52.266;10.542;2023-02-18T04:24:16;6.97;;;2.10;;
64959;SDS011;51487;52.266;10.542;2023-02-18T04:26:41;8.68;;;2.70;;
64959;SDS011;51487;52.266;10.542;2023-02-18T04:29:07;6.28;;;1.90;;
64959;SDS011;51487;52.266;10.542;2023-02-18T04:31:33;8.18;;;2.40;;
64959;SDS011;51487;52.266;10.542;2023-02-18T04:33:58;8.77;;;2.40;;
64959;SDS011;51487;52.266;10.542;2023-02-18T04:36:24;12.05;;;2.30;;
64959;SDS011;51487;52.266;10.542;2023-02-18T04:38:49;7.88;;;2.08;;
64959;SDS011;51487;52.266;10.542;2023-02-18T04:41:14;7.20;;;2.13;;
64959;SDS011;51487;52.266;10.542;2023-02-18T04:43:40;7.13;;;2.03;;
64959;SDS011;51487;52.266;10.542;2023-02-18T04:46:05;9.05;;;2.33;;
64959;SDS011;51487;52.266;10.542;2023-02-18T04:48:31;11.73;;;3.40;;
64959;SDS011;51487;52.266;10.542;2023-02-18T04:50:56;8.38;;;2.30;;
64959;SDS011;51487;52.266;10.542;2023-02-18T04:53:22;10.30;;;2.15;;
64959;SDS011;51487;52.266;10.542;2023-02-18T04:55:48;9.77;;;2.78;;
64959;SDS011;51487;52.266;10.542;2023-02-18T04:58:17;10.65;;;2.72;;
64959;SDS011;51487;52.266;10.542;2023-02-18T05:00:44;8.63;;;2.60;;
64959;SDS011;51487;52.266;10.542;2023-02-18T05:03:10;8.93;;;2.88;;
64959;SDS011;51487;52.266;10.542;2023-02-18T05:05:36;9.73;;;3.22;;
64959;SDS011;51487;52.266;10.542;2023-02-18T05:08:02;10.40;;;4.18;;
64959;SDS011;51487;52.266;10.542;2023-02-18T05:10:28;7.68;;;3.95;;
64959;SDS011;51487;52.266;10.542;2023-02-18T05:12:54;13.82;;;4.03;;
64959;SDS011;51487;52.266;10.542;2023-02-18T05:15:19;11.85;;;4.30;;
64959;SDS011;51487;52.266;10.542;2023-02-18T05:17:45;13.30;;;4.93;;
64959;SDS011;51487;52.266;10.542;2023-02-18T05:20:11;10.95;;;4.50;;
64959;SDS011;51487;52.266;10.542;2023-02-18T05:22:37;13.10;;;4.50;;
64959;SDS011;51487;52.266;10.542;2023-02-18T05:25:03;13.05;;;4.93;;
64959;SDS011;51487;52.266;10.542;2023-02-18T05:27:29;12.40;;;5.10;;
64959;SDS011;51487;52.266;10.542;2023-02-18T05:29:55;12.18;;;5.68;;
64959;SDS011;51487;52.266;10.542;2023-02-18T05:32:22;13.00;;;6.40;;
64959;SDS011;51487;52.266;10.542;2023-02-18T05:34:48;15.88;;;7.82;;
64959;SDS011;51487;52.266;10.542;2023-02-18T05:37:14;12.57;;;6.50;;
64959;SDS011;51487;52.266;10.542;2023-02-18T05:39:40;16.80;;;7.35;;
64959;SDS011;51487;52.266;10.542;2023-02-18T05:42:06;16.38;;;7.00;;
64959;SDS011;51487;52.266;10.542;2023-02-18T05:44:32;13.10;;;7.45;;
64959;SDS011;51487;52.266;10.542;2023-02-18T05:46:58;13.88;;;7.15;;
64959;SDS011;51487;52.266;10.542;2023-02-18T05:49:27;14.25;;;7.38;;
64959;SDS011;51487;52.266;10.542;2023-02-18T05:51:54;13.88;;;7.63;;
64959;SDS011;51487;52.266;10.542;2023-02-18T05:54:20;15.10;;;8.18;;
64959;SDS011;51487;52.266;10.542;2023-02-18T05:56:46;13.93;;;8.05;;
64959;SDS011;51487;52.266;10.542;2023-02-18T05:59:11;17.48;;;8.45;;
64959;SDS011;51487;52.266;10.542;2023-02-18T06:01:38;18.98;;;8.50;;
64959;SDS011;51487;52.266;10.542;2023-02-18T06:04:04;15.40;;;8.32;;
64959;SDS011;51487;52.266;10.542;2023-02-18T06:06:29;20.85;;;9.70;;
64959;SDS011;51487;52.266;10.542;2023-02-18T06:08:55;18.58;;;8.52;;
64959;SDS011;51487;52.266;10.542;2023-02-18T06:11:21;15.57;;;9.02;;
64959;SDS011;51487;52.266;10.542;2023-02-18T06:13:46;15.45;;;9.48;;
64959;SDS011;51487;52.266;10.542;2023-02-18T06:16:12;19.30;;;9.52;;
64959;SDS011;51487;52.266;10.542;2023-02-18T06:18:37;18.13;;;10.02;;
64959;SDS011;51487;52.266;10.542;2023-02-18T06:21:04;15.88;;;9.60;;
64959;SDS011;51487;52.266;10.542;2023-02-18T06:23:29;16.13;;;9.73;;
64959;SDS011;51487;52.266;10.542;2023-02-18T06:25:55;16.05;;;9.85;;
64959;SDS011;51487;52.266;10.542;2023-02-18T06:28:21;18.42;;;10.57;;
64959;SDS011;51487;52.266;10.542;2023-02-18T06:30:46;18.02;;;10.13;;
64959;SDS011;51487;52.266;10.542;2023-02-18T06:33:12;18.17;;;11.00;;
64959;SDS011;51487;52.266;10.542;2023-02-18T06:35:37;18.55;;;11.60;;
64959;SDS011;51487;52.266;10.542;2023-02-18T06:38:03;16.27;;;11.13;;
64959;SDS011;51487;52.266;10.542;2023-02-18T06:40:29;15.88;;;12.05;;
64959;SDS011;51487;52.266;10.542;2023-02-18T06:42:54;16.25;;;10.82;;
64959;SDS011;51487;52.266;10.542;2023-02-18T06:45:20;18.38;;;10.93;;
64959;SDS011;51487;52.266;10.542;2023-02-18T06:47:46;16.38;;;11.13;;
64959;SDS011;51487;52.266;10.542;2023-02-18T06:50:12;16.25;;;10.80;;
64959;SDS011;51487;52.266;10.542;2023-02-18T06:52:38;15.88;;;11.25;;
64959;SDS011;51487;52.266;10.542;2023-02-18T06:55:04;14.70;;;10.07;;
64959;SDS011;51487;52.266;10.542;2023-02-18T06:57:31;13.45;;;9.50;;
64959;SDS011;51487;52.266;10.542;2023-02-18T06:59:56;15.00;;;9.75;;
64959;SDS011;51487;52.266;10.542;2023-02-18T07:02:22;12.70;;;9.10;;
64959;SDS011;51487;52.266;10.542;2023-02-18T07:04:48;14.05;;;9.30;;
64959;SDS011;51487;52.266;10.542;2023-02-18T07:07:13;14.10;;;9.55;;
64959;SDS011;51487;52.266;10.542;2023-02-18T07:09:39;14.75;;;9.50;;
64959;SDS011;51487;52.266;10.542;2023-02-18T07:12:04;12.82;;;9.30;;
64959;SDS011;51487;52.266;10.542;2023-02-18T07:14:30;14.23;;;9.75;;
64959;SDS011;51487;52.266;10.542;2023-02-18T07:16:56;12.68;;;8.90;;
64959;SDS011;51487;52.266;10.542;2023-02-18T07:19:22;13.02;;;9.75;;
64959;SDS011;51487;52.266;10.542;2023-02-18T07:21:47;13.60;;;9.90;;
64959;SDS011;51487;52.266;10.542;2023-02-18T07:24:13;12.95;;;10.13;;
64959;SDS011;51487;52.266;10.542;2023-02-18T07:26:38;14.38;;;11.05;;
64959;SDS011;51487;52.266;10.542;2023-02-18T07:29:04;16.50;;;10.68;;
64959;SDS011;51487;52.266;10.542;2023-02-18T07:31:29;14.73;;;10.38;;
64959;SDS011;51487;52.266;10.542;2023-02-18T07:33:55;14.77;;;11.73;;
64959;SDS011;51487;52.266;10.542;2023-02-18T07:36:20;20.85;;;11.95;;
64959;SDS011;51487;52.266;10.542;2023-02-18T07:38:46;15.80;;;11.40;;
64959;SDS011;51487;52.266;10.542;2023-02-18T07:41:18;18.23;;;11.93;;
64959;SDS011;51487;52.266;10.542;2023-02-18T07:43:47;14.75;;;11.10;;
64959;SDS011;51487;52.266;10.542;2023-02-18T07:46:13;15.82;;;11.50;;
64959;SDS011;51487;52.266;10.542;2023-02-18T07:48:40;16.88;;;11.15;;
64959;SDS011;51487;52.266;10.542;2023-02-18T07:51:07;16.58;;;11.43;;
64959;SDS011;51487;52.266;10.542;2023-02-18T07:53:35;15.60;;;11.32;;
64959;SDS011;51487;52.266;10.542;2023-02-18T07:56:02;16.65;;;11.77;;
64959;SDS011;51487;52.266;10.542;2023-02-18T07:58:30;18.33;;;12.05;;
64959;SDS011;51487;52.266;10.542;2023-02-18T08:00:59;15.93;;;10.75;;
64959;SDS011;51487;52.266;10.542;2023-02-18T08:03:30;15.75;;;11.82;;
64959;SDS011;51487;52.266;10.542;2023-02-18T08:05:58;16.40;;;10.88;;
64959;SDS011;51487;52.266;10.542;2023-02-18T08:08:27;17.42;;;11.65;;
64959;SDS011;51487;52.266;10.542;2023-02-18T08:10:55;16.30;;;10.88;;
64959;SDS011;51487;52.266;10.542;2023-02-18T08:13:28;13.57;;;10.82;;
64959;SDS011;51487;52.266;10.542;2023-02-18T08:15:54;14.25;;;10.50;;
64959;SDS011;51487;52.266;10.542;2023-02-18T08:18:22;13.18;;;9.70;;
64959;SDS011;51487;52.266;10.542;2023-02-18T08:20:49;14.10;;;9.40;;
64959;SDS011;51487;52.266;10.542;2023-02-18T08:23:17;15.77;;;10.38;;
64959;SDS011;51487;52.266;10.542;2023-02-18T08:25:46;14.35;;;9.27;;
64959;SDS011;51487;52.266;10.542;2023-02-18T08:28:14;12.00;;;9.55;;
64959;SDS011;51487;52.266;10.542;2023-02-18T08:30:45;12.40;;;8.80;;
64959;SDS011;51487;52.266;10.542;2023-02-18T08:33:13;10.60;;;7.88;;
64959;SDS011;51487;52.266;10.542;2023-02-18T08:35:40;10.60;;;7.80;;
64959;SDS011;51487;52.266;10.542;2023-02-18T08:38:07;10.68;;;7.60;;
64959;SDS011;51487;52.266;10.542;2023-02-18T08:40:32;10.52;;;7.93;;
64959;SDS011;51487;52.266;10.542;2023-02-18T08:42:58;9.75;;;7.88;;
64959;SDS011;51487;52.266;10.542;2023-02-18T08:45:24;9.45;;;7.15;;
64959;SDS011;51487;52.266;10.542;2023-02-18T08:47:50;9.32;;;7.18;;
64959;SDS011;51487;52.266;10.542;2023-02-18T08:50:15;9.52;;;6.68;;
64959;SDS011;51487;52.266;10.542;2023-02-18T08:52:41;11.07;;;7.35;;
64959;SDS011;51487;52.266;10.542;2023-02-18T08:55:07;8.90;;;6.97;;
64959;SDS011;51487;52.266;10.542;2023-02-18T08:57:32;8.90;;;6.53;;
64959;SDS011;51487;52.266;10.542;2023-02-18T08:59:58;9.43;;;6.47;;
64959;SDS011;51487;52.266;10.542;2023-02-18T09:02:23;9.13;;;6.18;;
64959;SDS011;51487;52.266;10.542;2023-02-18T09:04:49;8.10;;;5.95;;
64959;SDS011;51487;52.266;10.542;2023-02-18T09:07:14;8.27;;;5.57;;
64959;SDS011;51487;52.266;10.542;2023-02-18T09:09:40;8.15;;;5.43;;
64959;SDS011;51487;52.266;10.542;2023-02-18T09:12:06;7.43;;;5.10;;
64959;SDS011;51487;52.266;10.542;2023-02-18T09:14:32;6.65;;;5.07;;
64959;SDS011;51487;52.266;10.542;2023-02-18T09:16:59;5.75;;;4.30;;
64959;SDS011;51487;52.266;10.542;2023-02-18T09:19:24;5.80;;;3.92;;
64959;SDS011;51487;52.266;10.542;2023-02-18T09:21:50;6.10;;;4.13;;
64959;SDS011;51487;52.266;10.542;2023-02-18T09:24:17;4.40;;;3.20;;
64959;SDS011;51487;52.266;10.542;2023-02-18T09:26:44;4.38;;;2.92;;
64959;SDS011;51487;52.266;10.542;2023-02-18T09:29:10;3.65;;;2.65;;
64959;SDS011;51487;52.266;10.542;2023-02-18T09:31:35;3.08;;;2.30;;
64959;SDS011;51487;52.266;10.542;2023-02-18T09:34:03;2.45;;;1.75;;
64959;SDS011;51487;52.266;10.542;2023-02-18T09:36:30;3.20;;;1.90;;
64959;SDS011;51487;52.266;10.542;2023-02-18T09:38:56;1.10;;;1.10;;
64959;SDS011;51487;52.266;10.542;2023-02-18T09:44:29;1.10;;;1.00;;
64959;SDS011;51487;52.266;10.542;2023-02-18T09:49:31;1.52;;;1.42;;
64959;SDS011;51487;52.266;10.542;2023-02-18T09:52:12;0.90;;;0.90;;
64959;SDS011;51487;52.266;10.542;2023-02-18T09:54:42;1.25;;;1.00;;
64959;SDS011;51487;52.266;10.542;2023-02-18T09:57:14;1.00;;;1.00;;
64959;SDS011;51487;52.266;10.542;2023-02-18T10:00:14;1.30;;;1.20;;
64959;SDS011;51487;52.266;10.542;2023-02-18T10:02:56;1.95;;;1.00;;
64959;SDS011;51487;52.266;10.542;2023-02-18T10:05:29;0.90;;;0.90;;
64959;SDS011;51487;52.266;10.542;2023-02-18T10:08:00;1.05;;;1.05;;
64959;SDS011;51487;52.266;10.542;2023-02-18T10:10:39;0.93;;;0.90;;
64959;SDS011;51487;52.266;10.542;2023-02-18T10:13:10;0.90;;;0.90;;
64959;SDS011;51487;52.266;10.542;2023-02-18T10:15:41;1.70;;;0.90;;
64959;SDS011;51487;52.266;10.542;2023-02-18T10:18:28;1.10;;;1.02;;
64959;SDS011;51487;52.266;10.542;2023-02-18T10:21:06;2.15;;;1.30;;
64959;SDS011;51487;52.266;10.542;2023-02-18T10:23:37;0.90;;;0.90;;
64959;SDS011;51487;52.266;10.542;2023-02-18T10:26:16;1.23;;;1.13;;
64959;SDS011;51487;52.266;10.542;2023-02-18T10:28:43;1.40;;;1.27;;
64959;SDS011;51487;52.266;10.542;2023-02-18T10:31:12;1.10;;;1.10;;
64959;SDS011;51487;52.266;10.542;2023-02-18T10:33:54;1.90;;;1.80;;
64959;SDS011;51487;52.266;10.542;2023-02-18T10:36:35;1.30;;;1.20;;
64959;SDS011;51487;52.266;10.542;2023-02-18T10:47:42;1.40;;;1.30;;
64959;SDS011;51487;52.266;10.542;2023-02-18T10:50:43;1.40;;;1.30;;
64959;SDS011;51487;52.266;10.542;2023-02-18T10:56:00;1.48;;;1.40;;
64959;SDS011;51487;52.266;10.542;2023-02-18T10:58:36;1.77;;;1.52;;
64959;SDS011;51487;52.266;10.542;2023-02-18T11:01:14;1.30;;;1.20;;
64959;SDS011;51487;52.266;10.542;2023-02-18T11:06:24;1.40;;;1.30;;
64959;SDS011;51487;52.266;10.542;2023-02-18T11:08:58;2.92;;;1.58;;
64959;SDS011;51487;52.266;10.542;2023-02-18T11:11:32;2.70;;;1.60;;
64959;SDS011;51487;52.266;10.542;2023-02-18T11:14:03;1.70;;;1.60;;
64959;SDS011;51487;52.266;10.542;2023-02-18T11:16:44;2.35;;;1.60;;
64959;SDS011;51487;52.266;10.542;2023-02-18T11:19:30;1.60;;;1.50;;
64959;SDS011;51487;52.266;10.542;2023-02-18T11:24:56;1.58;;;1.48;;
64959;SDS011;51487;52.266;10.542;2023-02-18T11:27:27;1.60;;;1.50;;
64959;SDS011;51487;52.266;10.542;2023-02-18T11:30:20;1.83;;;1.52;;
64959;SDS011;51487;52.266;10.542;2023-02-18T11:32:52;1.92;;;1.77;;
64959;SDS011;51487;52.266;10.542;2023-02-18T11:35:28;3.00;;;1.85;;
64959;SDS011;51487;52.266;10.542;2023-02-18T11:37:56;7.97;;;2.25;;
64959;SDS011;51487;52.266;10.542;2023-02-18T11:40:26;2.20;;;2.00;;
64959;SDS011;51487;52.266;10.542;2023-02-18T11:43:11;2.30;;;2.10;;
64959;SDS011;51487;52.266;10.542;2023-02-18T11:45:40;2.58;;;2.20;;
64959;SDS011;51487;52.266;10.542;2023-02-18T11:48:14;2.20;;;2.00;;
64959;SDS011;51487;52.266;10.542;2023-02-18T11:50:43;3.13;;;2.20;;
64959;SDS011;51487;52.266;10.542;2023-02-18T11:53:25;2.35;;;2.20;;
64959;SDS011;51487;52.266;10.542;2023-02-18T11:56:03;2.38;;;2.17;;
64959;SDS011;51487;52.266;10.542;2023-02-18T11:58:45;2.27;;;2.07;;
64959;SDS011;51487;52.266;10.542;2023-02-18T12:01:31;2.95;;;2.30;;
64959;SDS011;51487;52.266;10.542;2023-02-18T12:04:12;2.80;;;2.05;;
64959;SDS011;51487;52.266;10.542;2023-02-18T12:06:46;2.63;;;2.15;;
64959;SDS011;51487;52.266;10.542;2023-02-18T12:09:22;1.88;;;1.60;;
64959;SDS011;51487;52.266;10.542;2023-02-18T12:11:57;1.90;;;1.80;;
64959;SDS011;51487;52.266;10.542;2023-02-18T12:14:30;2.15;;;1.70;;
64959;SDS011;51487;52.266;10.542;2023-02-18T12:22:43;2.10;;;1.90;;
64959;SDS011;51487;52.266;10.542;2023-02-18T12:28:14;1.77;;;1.67;;
64959;SDS011;51487;52.266;10.542;2023-02-18T12:41:32;2.03;;;1.80;;
64959;SDS011;51487;52.266;10.542;2023-02-18T13:04:43;1.52;;;1.42;;
64959;SDS011;51487;52.266;10.542;2023-02-18T13:10:50;2.80;;;2.03;;
64959;SDS011;51487;52.266;10.542;2023-02-18T13:13:17;2.17;;;1.85;;
64959;SDS011;51487;52.266;10.542;2023-02-18T13:15:50;2.28;;;1.90;;
64959;SDS011;51487;52.266;10.542;2023-02-18T13:18:25;1.80;;;1.60;;
64959;SDS011;51487;52.266;10.542;2023-02-18T13:20:59;2.00;;;1.80;;
64959;SDS011;51487;52.266;10.542;2023-02-18T13:23:32;1.73;;;1.60;;
64959;SDS011;51487;52.266;10.542;2023-02-18T13:26:03;2.35;;;1.88;;
64959;SDS011;51487;52.266;10.542;2023-02-18T13:29:04;1.70;;;1.60;;
64959;SDS011;51487;52.266;10.542;2023-02-18T13:37:31;2.00;;;1.77;;
64959;SDS011;51487;52.266;10.542;2023-02-18T13:40:24;2.20;;;1.60;;
64959;SDS011;51487;52.266;10.542;2023-02-18T13:42:54;2.58;;;1.63;;
64959;SDS011;51487;52.266;10.542;2023-02-18T13:46:01;2.58;;;1.50;;
64959;SDS011;51487;52.266;10.542;2023-02-18T13:48:50;1.70;;;1.60;;
64959;SDS011;51487;52.266;10.542;2023-02-18T13:51:26;1.63;;;1.38;;
64959;SDS011;51487;52.266;10.542;2023-02-18T13:54:07;1.60;;;1.30;;
64959;SDS011;51487;52.266;10.542;2023-02-18T13:56:39;1.30;;;1.20;;
64959;SDS011;51487;52.266;10.542;2023-02-18T13:59:10;1.50;;;1.40;;
64959;SDS011;51487;52.266;10.542;2023-02-18T14:01:47;1.65;;;1.50;;
64959;SDS011;51487;52.266;10.542;2023-02-18T14:10:00;3.47;;;2.00;;
64959;SDS011;51487;52.266;10.542;2023-02-18T14:13:00;1.80;;;1.70;;
64959;SDS011;51487;52.266;10.542;2023-02-18T14:15:49;1.65;;;1.42;;
64959;SDS011;51487;52.266;10.542;2023-02-18T14:26:36;2.00;;;1.80;;
64959;SDS011;51487;52.266;10.542;2023-02-18T14:29:01;1.80;;;1.70;;
64959;SDS011;51487;52.266;10.542;2023-02-18T14:31:48;2.10;;;1.90;;
64959;SDS011;51487;52.266;10.542;2023-02-18T14:34:31;4.32;;;1.90;;
64959;SDS011;51487;52.266;10.542;2023-02-18T14:37:45;2.92;;;2.00;;
64959;SDS011;51487;52.266;10.542;2023-02-18T14:52:55;2.67;;;2.13;;
64959;SDS011;51487;52.266;10.542;2023-02-18T14:54:55;2.28;;;1.85;;
64959;SDS011;51487;52.266;10.542;2023-02-18T14:57:36;3.75;;;3.00;;
64959;SDS011;51487;52.266;10.542;2023-02-18T15:00:14;4.40;;;1.90;;
64959;SDS011;51487;52.266;10.542;2023-02-18T15:02:53;3.22;;;2.00;;
64959;SDS011;51487;52.266;10.542;2023-02-18T15:05:24;2.20;;;2.00;;
64959;SDS011;51487;52.266;10.542;2023-02-18T15:08:06;2.33;;;2.00;;
64959;SDS011;51487;52.266;10.542;2023-02-18T15:13:13;4.43;;;2.00;;
64959;SDS011;51487;52.266;10.542;2023-02-18T15:15:51;2.53;;;2.30;;
64959;SDS011;51487;52.266;10.542;2023-02-18T15:18:26;4.72;;;2.50;;
64959;SDS011;51487;52.266;10.542;2023-02-18T15:20:59;2.72;;;2.13;;
64959;SDS011;51487;52.266;10.542;2023-02-18T15:23:30;4.22;;;2.30;;
64959;SDS011;51487;52.266;10.542;2023-02-18T15:26:01;4.18;;;2.40;;
64959;SDS011;51487;52.266;10.542;2023-02-18T15:28:29;3.08;;;2.50;;
64959;SDS011;51487;52.266;10.542;2023-02-18T15:30:57;2.00;;;1.80;;
64959;SDS011;51487;52.266;10.542;2023-02-18T15:33:25;4.65;;;2.10;;
64959;SDS011;51487;52.266;10.542;2023-02-18T15:35:58;2.17;;;1.90;;
64959;SDS011;51487;52.266;10.542;2023-02-18T15:38:37;2.40;;;1.83;;
64959;SDS011;51487;52.266;10.542;2023-02-18T15:41:07;3.95;;;2.20;;
64959;SDS011;51487;52.266;10.542;2023-02-18T15:46:51;3.55;;;1.90;;
64959;SDS011;51487;52.266;10.542;2023-02-18T15:49:21;6.75;;;2.00;;
64959;SDS011;51487;52.266;10.542;2023-02-18T15:51:49;4.45;;;2.05;;
64959;SDS011;51487;52.266;10.542;2023-02-18T15:54:21;4.00;;;1.80;;
64959;SDS011;51487;52.266;10.542;2023-02-18T15:56:49;4.38;;;2.35;;
64959;SDS011;51487;52.266;10.542;2023-02-18T16:04:33;4.13;;;2.03;;
64959;SDS011;51487;52.266;10.542;2023-02-18T16:07:14;6.20;;;2.35;;
64959;SDS011;51487;52.266;10.542;2023-02-18T16:09:43;6.93;;;2.55;;
64959;SDS011;51487;52.266;10.542;2023-02-18T16:12:16;6.60;;;2.25;;
64959;SDS011;51487;52.266;10.542;2023-02-18T16:14:52;6.30;;;2.40;;
64959;SDS011;51487;52.266;10.542;2023-02-18T16:17:20;4.25;;;2.53;;
64959;SDS011;51487;52.266;10.542;2023-02-18T16:22:43;7.82;;;2.50;;
64959;SDS011;51487;52.266;10.542;2023-02-18T16:25:20;5.95;;;2.75;;
64959;SDS011;51487;52.266;10.542;2023-02-18T16:27:52;5.05;;;2.50;;
64959;SDS011;51487;52.266;10.542;2023-02-18T16:30:22;7.72;;;2.72;;
64959;SDS011;51487;52.266;10.542;2023-02-18T16:32:54;6.77;;;2.73;;
64959;SDS011;51487;52.266;10.542;2023-02-18T16:35:22;5.07;;;3.40;;
64959;SDS011;51487;52.266;10.542;2023-02-18T16:37:49;5.28;;;3.05;;
64959;SDS011;51487;52.266;10.542;2023-02-18T16:40:21;9.07;;;4.00;;
64959;SDS011;51487;52.266;10.542;2023-02-18T16:43:09;5.72;;;2.80;;
64959;SDS011;51487;52.266;10.542;2023-02-18T16:45:46;6.68;;;3.00;;
64959;SDS011;51487;52.266;10.542;2023-02-18T16:50:55;5.47;;;2.95;;
64959;SDS011;51487;52.266;10.542;2023-02-18T16:53:25;6.32;;;3.20;;
64959;SDS011;51487;52.266;10.542;2023-02-18T16:55:50;5.20;;;2.97;;
64959;SDS011;51487;52.266;10.542;2023-02-18T16:58:16;6.35;;;3.38;;
64959;SDS011;51487;52.266;10.542;2023-02-18T17:00:42;7.38;;;3.03;;
64959;SDS011;51487;52.266;10.542;2023-02-18T17:03:10;5.18;;;3.72;;
64959;SDS011;51487;52.266;10.542;2023-02-18T17:05:37;5.38;;;3.10;;
64959;SDS011;51487;52.266;10.542;2023-02-18T17:10:50;7.85;;;3.08;;
64959;SDS011;51487;52.266;10.542;2023-02-18T17:13:28;8.02;;;3.10;;
64959;SDS011;51487;52.266;10.542;2023-02-18T17:15:55;6.68;;;3.20;;
64959;SDS011;51487;52.266;10.542;2023-02-18T17:18:23;10.20;;;2.72;;
64959;SDS011;51487;52.266;10.542;2023-02-18T17:20:51;9.75;;;3.00;;
64959;SDS011;51487;52.266;10.542;2023-02-18T17:23:19;6.30;;;2.97;;
64959;SDS011;51487;52.266;10.542;2023-02-18T17:25:47;7.68;;;2.70;;
64959;SDS011;51487;52.266;10.542;2023-02-18T17:28:15;5.72;;;2.40;;
64959;SDS011;51487;52.266;10.542;2023-02-18T17:30:43;5.88;;;2.50;;
64959;SDS011;51487;52.266;10.542;2023-02-18T17:33:15;9.55;;;2.65;;